sensor_id;sensor_type;location;lat;lon;timestamp;temperature;humidity
13569;DHT22;6856;51.460;7.158;2022-11-02T00:00:49;16.20;53.50
13569;DHT22;6856;51.460;7.158;2022-11-02T00:03:25;16.20;53.60
13569;DHT22;6856;51.460;7.158;2022-11-02T00:05:59;16.20;53.30
13569;DHT22;6856;51.460;7.158;2022-11-02T00:08:32;16.20;53.50
13569;DHT22;6856;51.460;7.158;2022-11-02T00:11:06;16.20;53.50
13569;DHT22;6856;51.460;7.158;2022-11-02T00:13:39;16.20;53.50
13569;DHT22;6856;51.460;7.158;2022-11-02T00:16:14;16.20;53.50
13569;DHT22;6856;51.460;7.158;2022-11-02T00:18:53;16.20;53.70
13569;DHT22;6856;51.460;7.158;2022-11-02T00:21:28;16.20;53.70
13569;DHT22;6856;51.460;7.158;2022-11-02T00:24:01;16.20;53.60
13569;DHT22;6856;51.460;7.158;2022-11-02T00:26:37;16.20;53.70
13569;DHT22;6856;51.460;7.158;2022-11-02T00:29:12;16.20;53.60
13569;DHT22;6856;51.460;7.158;2022-11-02T00:31:45;16.20;53.70
13569;DHT22;6856;51.460;7.158;2022-11-02T00:34:20;16.30;53.60
13569;DHT22;6856;51.460;7.158;2022-11-02T00:36:54;16.30;53.60
13569;DHT22;6856;51.460;7.158;2022-11-02T00:39:27;16.30;53.90
13569;DHT22;6856;51.460;7.158;2022-11-02T00:42:02;16.30;53.90
13569;DHT22;6856;51.460;7.158;2022-11-02T00:44:35;16.30;54.00
13569;DHT22;6856;51.460;7.158;2022-11-02T00:47:08;16.30;53.90
13569;DHT22;6856;51.460;7.158;2022-11-02T00:49:46;16.30;54.50
13569;DHT22;6856;51.460;7.158;2022-11-02T00:52:19;16.30;53.80
13569;DHT22;6856;51.460;7.158;2022-11-02T00:54:53;16.30;53.80
13569;DHT22;6856;51.460;7.158;2022-11-02T00:57:26;16.30;53.80
13569;DHT22;6856;51.460;7.158;2022-11-02T01:00:00;16.30;54.10
13569;DHT22;6856;51.460;7.158;2022-11-02T01:02:33;16.30;53.80
13569;DHT22;6856;51.460;7.158;2022-11-02T01:05:10;16.30;54.20
13569;DHT22;6856;51.460;7.158;2022-11-02T01:07:43;16.30;54.30
13569;DHT22;6856;51.460;7.158;2022-11-02T01:10:17;16.30;54.20
13569;DHT22;6856;51.460;7.158;2022-11-02T01:12:59;16.30;54.40
13569;DHT22;6856;51.460;7.158;2022-11-02T01:15:35;16.30;54.40
13569;DHT22;6856;51.460;7.158;2022-11-02T01:18:17;16.30;54.30
13569;DHT22;6856;51.460;7.158;2022-11-02T01:20:56;16.30;54.30
13569;DHT22;6856;51.460;7.158;2022-11-02T01:23:31;16.30;54.40
13569;DHT22;6856;51.460;7.158;2022-11-02T01:26:06;16.30;54.50
13569;DHT22;6856;51.460;7.158;2022-11-02T01:28:41;16.30;54.50
13569;DHT22;6856;51.460;7.158;2022-11-02T01:31:14;16.30;54.50
13569;DHT22;6856;51.460;7.158;2022-11-02T01:33:48;16.30;54.40
13569;DHT22;6856;51.460;7.158;2022-11-02T01:36:23;16.30;54.60
13569;DHT22;6856;51.460;7.158;2022-11-02T01:38:57;16.20;54.40
13569;DHT22;6856;51.460;7.158;2022-11-02T01:41:30;16.20;54.40
13569;DHT22;6856;51.460;7.158;2022-11-02T01:44:04;16.20;54.40
13569;DHT22;6856;51.460;7.158;2022-11-02T01:47:02;16.20;54.60
13569;DHT22;6856;51.460;7.158;2022-11-02T01:49:42;16.20;54.60
13569;DHT22;6856;51.460;7.158;2022-11-02T01:52:23;16.20;54.60
13569;DHT22;6856;51.460;7.158;2022-11-02T01:55:03;16.20;54.60
13569;DHT22;6856;51.460;7.158;2022-11-02T01:57:47;16.20;54.70
13569;DHT22;6856;51.460;7.158;2022-11-02T02:00:25;16.20;54.70
13569;DHT22;6856;51.460;7.158;2022-11-02T02:03:07;16.20;54.70
13569;DHT22;6856;51.460;7.158;2022-11-02T02:05:45;16.20;54.90
13569;DHT22;6856;51.460;7.158;2022-11-02T02:08:23;16.20;54.90
13569;DHT22;6856;51.460;7.158;2022-11-02T02:10:58;16.20;54.30
13569;DHT22;6856;51.460;7.158;2022-11-02T02:13:32;16.20;54.90
13569;DHT22;6856;51.460;7.158;2022-11-02T02:16:13;16.20;54.90
13569;DHT22;6856;51.460;7.158;2022-11-02T02:18:54;16.20;55.10
13569;DHT22;6856;51.460;7.158;2022-11-02T02:21:35;16.20;55.10
13569;DHT22;6856;51.460;7.158;2022-11-02T02:24:27;16.20;55.00
13569;DHT22;6856;51.460;7.158;2022-11-02T02:27:16;16.20;55.10
13569;DHT22;6856;51.460;7.158;2022-11-02T02:30:04;16.20;55.00
13569;DHT22;6856;51.460;7.158;2022-11-02T02:32:45;16.20;55.00
13569;DHT22;6856;51.460;7.158;2022-11-02T02:35:25;16.20;54.90
13569;DHT22;6856;51.460;7.158;2022-11-02T02:38:04;16.20;54.90
13569;DHT22;6856;51.460;7.158;2022-11-02T02:40:46;16.20;54.90
13569;DHT22;6856;51.460;7.158;2022-11-02T02:43:28;16.20;55.00
13569;DHT22;6856;51.460;7.158;2022-11-02T02:46:09;16.20;55.00
13569;DHT22;6856;51.460;7.158;2022-11-02T02:48:51;16.10;54.90
13569;DHT22;6856;51.460;7.158;2022-11-02T02:51:31;16.10;55.00
13569;DHT22;6856;51.460;7.158;2022-11-02T02:54:13;16.10;55.00
13569;DHT22;6856;51.460;7.158;2022-11-02T02:56:55;16.10;55.00
13569;DHT22;6856;51.460;7.158;2022-11-02T02:59:36;16.10;55.00
13569;DHT22;6856;51.460;7.158;2022-11-02T03:02:20;15.80;55.10
13569;DHT22;6856;51.460;7.158;2022-11-02T03:04:56;16.10;55.00
13569;DHT22;6856;51.460;7.158;2022-11-02T03:07:32;16.00;55.20
13569;DHT22;6856;51.460;7.158;2022-11-02T03:10:15;16.00;55.30
13569;DHT22;6856;51.460;7.158;2022-11-02T03:13:02;16.00;55.20
13569;DHT22;6856;51.460;7.158;2022-11-02T03:15:47;16.00;55.30
13569;DHT22;6856;51.460;7.158;2022-11-02T03:18:34;16.00;55.40
13569;DHT22;6856;51.460;7.158;2022-11-02T03:21:19;16.00;55.50
13569;DHT22;6856;51.460;7.158;2022-11-02T03:24:03;16.00;55.50
13569;DHT22;6856;51.460;7.158;2022-11-02T03:26:47;16.00;55.40
13569;DHT22;6856;51.460;7.158;2022-11-02T03:29:37;16.00;55.40
13569;DHT22;6856;51.460;7.158;2022-11-02T03:32:19;16.00;55.50
13569;DHT22;6856;51.460;7.158;2022-11-02T03:35:02;16.00;55.30
13569;DHT22;6856;51.460;7.158;2022-11-02T03:37:42;16.00;55.30
13569;DHT22;6856;51.460;7.158;2022-11-02T03:40:27;16.00;55.50
13569;DHT22;6856;51.460;7.158;2022-11-02T03:43:04;16.00;55.40
13569;DHT22;6856;51.460;7.158;2022-11-02T03:45:41;16.00;55.30
13569;DHT22;6856;51.460;7.158;2022-11-02T03:48:18;16.00;55.20
13569;DHT22;6856;51.460;7.158;2022-11-02T03:50:57;16.00;55.30
13569;DHT22;6856;51.460;7.158;2022-11-02T03:53:38;16.00;55.30
13569;DHT22;6856;51.460;7.158;2022-11-02T03:56:20;16.00;55.50
13569;DHT22;6856;51.460;7.158;2022-11-02T03:58:57;16.00;55.30
13569;DHT22;6856;51.460;7.158;2022-11-02T04:01:36;16.00;55.20
13569;DHT22;6856;51.460;7.158;2022-11-02T04:04:13;16.00;55.30
13569;DHT22;6856;51.460;7.158;2022-11-02T04:06:48;16.00;55.10
13569;DHT22;6856;51.460;7.158;2022-11-02T04:09:22;16.00;55.20
13569;DHT22;6856;51.460;7.158;2022-11-02T04:11:56;16.00;55.30
13569;DHT22;6856;51.460;7.158;2022-11-02T04:14:47;15.90;55.30
13569;DHT22;6856;51.460;7.158;2022-11-02T04:17:21;15.90;55.20
13569;DHT22;6856;51.460;7.158;2022-11-02T04:20:11;15.90;55.20
13569;DHT22;6856;51.460;7.158;2022-11-02T04:22:46;15.90;55.20
13569;DHT22;6856;51.460;7.158;2022-11-02T04:25:37;15.90;55.30
13569;DHT22;6856;51.460;7.158;2022-11-02T04:28:11;15.90;55.10
13569;DHT22;6856;51.460;7.158;2022-11-02T04:30:44;15.90;55.30
13569;DHT22;6856;51.460;7.158;2022-11-02T04:33:18;15.90;55.30
13569;DHT22;6856;51.460;7.158;2022-11-02T04:36:07;15.80;55.40
13569;DHT22;6856;51.460;7.158;2022-11-02T04:38:42;15.80;55.40
13569;DHT22;6856;51.460;7.158;2022-11-02T04:41:15;15.80;55.30
13569;DHT22;6856;51.460;7.158;2022-11-02T04:44:08;15.80;55.40
13569;DHT22;6856;51.460;7.158;2022-11-02T04:46:43;15.80;55.30
13569;DHT22;6856;51.460;7.158;2022-11-02T04:49:16;15.80;55.40
13569;DHT22;6856;51.460;7.158;2022-11-02T04:51:49;15.80;55.80
13569;DHT22;6856;51.460;7.158;2022-11-02T04:54:29;15.80;55.40
13569;DHT22;6856;51.460;7.158;2022-11-02T04:57:02;15.80;55.20
13569;DHT22;6856;51.460;7.158;2022-11-02T04:59:36;15.70;55.40
13569;DHT22;6856;51.460;7.158;2022-11-02T05:02:10;15.70;55.30
13569;DHT22;6856;51.460;7.158;2022-11-02T05:04:44;15.70;55.20
13569;DHT22;6856;51.460;7.158;2022-11-02T05:07:17;15.70;55.20
13569;DHT22;6856;51.460;7.158;2022-11-02T05:09:54;15.70;55.80
13569;DHT22;6856;51.460;7.158;2022-11-02T05:12:28;15.70;55.20
13569;DHT22;6856;51.460;7.158;2022-11-02T05:15:04;15.70;55.20
13569;DHT22;6856;51.460;7.158;2022-11-02T05:17:38;15.70;55.40
13569;DHT22;6856;51.460;7.158;2022-11-02T05:20:11;15.70;55.30
13569;DHT22;6856;51.460;7.158;2022-11-02T05:22:45;15.70;55.30
13569;DHT22;6856;51.460;7.158;2022-11-02T05:25:20;15.70;55.00
13569;DHT22;6856;51.460;7.158;2022-11-02T05:27:55;15.70;55.10
13569;DHT22;6856;51.460;7.158;2022-11-02T05:30:31;15.70;55.30
13569;DHT22;6856;51.460;7.158;2022-11-02T05:33:04;15.70;55.20
13569;DHT22;6856;51.460;7.158;2022-11-02T05:35:38;15.70;54.90
13569;DHT22;6856;51.460;7.158;2022-11-02T05:38:12;15.70;55.20
13569;DHT22;6856;51.460;7.158;2022-11-02T05:40:52;15.70;55.30
13569;DHT22;6856;51.460;7.158;2022-11-02T05:43:26;15.70;55.40
13569;DHT22;6856;51.460;7.158;2022-11-02T05:46:01;15.70;55.40
13569;DHT22;6856;51.460;7.158;2022-11-02T05:48:35;15.70;55.40
13569;DHT22;6856;51.460;7.158;2022-11-02T05:51:09;15.70;55.20
13569;DHT22;6856;51.460;7.158;2022-11-02T05:53:43;15.70;55.30
13569;DHT22;6856;51.460;7.158;2022-11-02T05:56:17;15.80;55.20
13569;DHT22;6856;51.460;7.158;2022-11-02T05:58:55;15.70;55.10
13569;DHT22;6856;51.460;7.158;2022-11-02T06:01:29;15.70;55.20
13569;DHT22;6856;51.460;7.158;2022-11-02T06:04:03;15.70;55.20
13569;DHT22;6856;51.460;7.158;2022-11-02T06:06:36;15.70;55.20
13569;DHT22;6856;51.460;7.158;2022-11-02T06:09:11;15.70;54.90
13569;DHT22;6856;51.460;7.158;2022-11-02T06:11:46;15.70;55.00
13569;DHT22;6856;51.460;7.158;2022-11-02T06:14:20;15.60;55.20
13569;DHT22;6856;51.460;7.158;2022-11-02T06:16:53;15.60;55.20
13569;DHT22;6856;51.460;7.158;2022-11-02T06:19:27;15.60;55.20
13569;DHT22;6856;51.460;7.158;2022-11-02T06:22:01;15.60;55.20
13569;DHT22;6856;51.460;7.158;2022-11-02T06:24:34;15.60;55.20
13569;DHT22;6856;51.460;7.158;2022-11-02T06:27:09;15.70;55.10
13569;DHT22;6856;51.460;7.158;2022-11-02T06:29:43;15.60;53.60
13569;DHT22;6856;51.460;7.158;2022-11-02T06:32:16;15.60;55.00
13569;DHT22;6856;51.460;7.158;2022-11-02T06:34:50;15.60;55.30
13569;DHT22;6856;51.460;7.158;2022-11-02T06:37:23;15.50;55.10
13569;DHT22;6856;51.460;7.158;2022-11-02T06:39:56;15.50;55.10
13569;DHT22;6856;51.460;7.158;2022-11-02T06:42:31;15.50;55.20
13569;DHT22;6856;51.460;7.158;2022-11-02T06:45:15;15.50;55.90
13569;DHT22;6856;51.460;7.158;2022-11-02T06:47:49;15.50;54.80
13569;DHT22;6856;51.460;7.158;2022-11-02T06:50:22;15.50;55.40
13569;DHT22;6856;51.460;7.158;2022-11-02T06:52:56;15.50;55.40
13569;DHT22;6856;51.460;7.158;2022-11-02T06:55:29;15.50;55.40
13569;DHT22;6856;51.460;7.158;2022-11-02T06:58:04;15.50;55.40
13569;DHT22;6856;51.460;7.158;2022-11-02T07:00:37;15.50;55.40
13569;DHT22;6856;51.460;7.158;2022-11-02T07:03:11;15.50;55.30
13569;DHT22;6856;51.460;7.158;2022-11-02T07:05:49;15.50;55.40
13569;DHT22;6856;51.460;7.158;2022-11-02T07:08:24;15.50;55.50
13569;DHT22;6856;51.460;7.158;2022-11-02T07:10:58;15.50;55.60
13569;DHT22;6856;51.460;7.158;2022-11-02T07:13:33;15.50;55.50
13569;DHT22;6856;51.460;7.158;2022-11-02T07:16:09;15.50;55.30
13569;DHT22;6856;51.460;7.158;2022-11-02T07:18:42;15.50;55.50
13569;DHT22;6856;51.460;7.158;2022-11-02T07:21:17;15.50;55.00
13569;DHT22;6856;51.460;7.158;2022-11-02T07:23:50;15.50;55.40
13569;DHT22;6856;51.460;7.158;2022-11-02T07:26:24;15.50;55.10
13569;DHT22;6856;51.460;7.158;2022-11-02T07:28:59;15.50;55.30
13569;DHT22;6856;51.460;7.158;2022-11-02T07:31:33;15.50;55.20
13569;DHT22;6856;51.460;7.158;2022-11-02T07:34:06;15.50;55.30
13569;DHT22;6856;51.460;7.158;2022-11-02T07:36:47;15.50;55.30
13569;DHT22;6856;51.460;7.158;2022-11-02T07:39:20;15.50;55.30
13569;DHT22;6856;51.460;7.158;2022-11-02T07:41:54;15.50;55.10
13569;DHT22;6856;51.460;7.158;2022-11-02T07:44:29;15.50;55.20
13569;DHT22;6856;51.460;7.158;2022-11-02T07:47:02;15.50;55.20
13569;DHT22;6856;51.460;7.158;2022-11-02T07:49:36;15.50;55.20
13569;DHT22;6856;51.460;7.158;2022-11-02T07:52:09;15.50;55.20
13569;DHT22;6856;51.460;7.158;2022-11-02T07:54:43;15.50;55.90
13569;DHT22;6856;51.460;7.158;2022-11-02T07:57:17;15.50;55.30
13569;DHT22;6856;51.460;7.158;2022-11-02T07:59:52;15.50;55.40
13569;DHT22;6856;51.460;7.158;2022-11-02T08:02:25;15.50;55.40
13569;DHT22;6856;51.460;7.158;2022-11-02T08:04:59;15.50;55.20
13569;DHT22;6856;51.460;7.158;2022-11-02T08:07:32;15.50;55.20
13569;DHT22;6856;51.460;7.158;2022-11-02T08:10:06;15.50;55.30
13569;DHT22;6856;51.460;7.158;2022-11-02T08:12:40;15.50;55.60
13569;DHT22;6856;51.460;7.158;2022-11-02T08:15:15;15.50;55.50
13569;DHT22;6856;51.460;7.158;2022-11-02T08:17:59;15.60;55.40
13569;DHT22;6856;51.460;7.158;2022-11-02T08:20:35;15.60;55.60
13569;DHT22;6856;51.460;7.158;2022-11-02T08:23:09;15.60;55.30
13569;DHT22;6856;51.460;7.158;2022-11-02T08:25:45;15.60;55.30
13569;DHT22;6856;51.460;7.158;2022-11-02T08:28:23;15.70;55.60
13569;DHT22;6856;51.460;7.158;2022-11-02T08:30:59;15.70;55.50
13569;DHT22;6856;51.460;7.158;2022-11-02T08:33:33;15.80;55.40
13569;DHT22;6856;51.460;7.158;2022-11-02T08:36:07;15.80;55.30
13569;DHT22;6856;51.460;7.158;2022-11-02T08:38:41;15.80;55.20
13569;DHT22;6856;51.460;7.158;2022-11-02T08:41:14;15.90;55.20
13569;DHT22;6856;51.460;7.158;2022-11-02T08:43:48;15.90;55.10
13569;DHT22;6856;51.460;7.158;2022-11-02T08:46:23;15.90;54.90
13569;DHT22;6856;51.460;7.158;2022-11-02T08:48:56;16.00;54.90
13569;DHT22;6856;51.460;7.158;2022-11-02T08:51:30;16.00;54.80
13569;DHT22;6856;51.460;7.158;2022-11-02T08:54:04;16.00;54.80
13569;DHT22;6856;51.460;7.158;2022-11-02T08:56:39;16.10;55.20
13569;DHT22;6856;51.460;7.158;2022-11-02T08:59:13;16.10;54.70
13569;DHT22;6856;51.460;7.158;2022-11-02T09:01:47;16.00;54.40
13569;DHT22;6856;51.460;7.158;2022-11-02T09:04:23;16.10;54.30
13569;DHT22;6856;51.460;7.158;2022-11-02T09:06:57;16.10;53.50
13569;DHT22;6856;51.460;7.158;2022-11-02T09:09:30;16.10;54.30
13569;DHT22;6856;51.460;7.158;2022-11-02T09:12:04;16.10;54.50
13569;DHT22;6856;51.460;7.158;2022-11-02T09:14:38;16.10;54.60
13569;DHT22;6856;51.460;7.158;2022-11-02T09:17:13;16.20;54.40
13569;DHT22;6856;51.460;7.158;2022-11-02T09:19:46;16.20;54.40
13569;DHT22;6856;51.460;7.158;2022-11-02T09:22:20;16.20;54.40
13569;DHT22;6856;51.460;7.158;2022-11-02T09:24:54;16.20;54.40
13569;DHT22;6856;51.460;7.158;2022-11-02T09:27:27;16.20;54.20
13569;DHT22;6856;51.460;7.158;2022-11-02T09:30:01;16.20;54.20
13569;DHT22;6856;51.460;7.158;2022-11-02T09:32:37;16.20;53.90
13569;DHT22;6856;51.460;7.158;2022-11-02T09:35:11;16.30;54.40
13569;DHT22;6856;51.460;7.158;2022-11-02T09:37:45;16.40;54.40
13569;DHT22;6856;51.460;7.158;2022-11-02T09:40:24;16.40;53.90
13569;DHT22;6856;51.460;7.158;2022-11-02T09:43:05;16.40;54.00
13569;DHT22;6856;51.460;7.158;2022-11-02T09:45:52;16.40;54.00
13569;DHT22;6856;51.460;7.158;2022-11-02T09:48:32;16.50;53.90
13569;DHT22;6856;51.460;7.158;2022-11-02T09:51:12;16.50;53.80
13569;DHT22;6856;51.460;7.158;2022-11-02T09:53:54;16.50;53.80
13569;DHT22;6856;51.460;7.158;2022-11-02T09:56:34;16.50;53.90
13569;DHT22;6856;51.460;7.158;2022-11-02T09:59:12;16.50;54.00
13569;DHT22;6856;51.460;7.158;2022-11-02T10:01:54;16.60;54.00
13569;DHT22;6856;51.460;7.158;2022-11-02T10:05:11;16.60;53.90
13569;DHT22;6856;51.460;7.158;2022-11-02T10:08:09;16.70;54.00
13569;DHT22;6856;51.460;7.158;2022-11-02T10:11:05;16.70;53.70
13569;DHT22;6856;51.460;7.158;2022-11-02T10:13:49;16.80;53.60
13569;DHT22;6856;51.460;7.158;2022-11-02T10:16:33;16.80;53.40
13569;DHT22;6856;51.460;7.158;2022-11-02T10:19:12;16.80;53.20
13569;DHT22;6856;51.460;7.158;2022-11-02T10:21:54;16.80;53.40
13569;DHT22;6856;51.460;7.158;2022-11-02T10:24:31;16.80;53.40
13569;DHT22;6856;51.460;7.158;2022-11-02T10:27:15;16.90;53.50
13569;DHT22;6856;51.460;7.158;2022-11-02T10:29:57;17.00;53.30
13569;DHT22;6856;51.460;7.158;2022-11-02T10:32:39;17.00;53.20
13569;DHT22;6856;51.460;7.158;2022-11-02T10:35:19;17.10;53.20
13569;DHT22;6856;51.460;7.158;2022-11-02T10:38:28;17.10;53.00
13569;DHT22;6856;51.460;7.158;2022-11-02T10:41:23;17.20;52.90
13569;DHT22;6856;51.460;7.158;2022-11-02T10:44:29;17.20;52.70
13569;DHT22;6856;51.460;7.158;2022-11-02T10:47:15;17.30;52.40
13569;DHT22;6856;51.460;7.158;2022-11-02T10:50:07;17.40;52.30
13569;DHT22;6856;51.460;7.158;2022-11-02T10:53:02;17.50;52.00
13569;DHT22;6856;51.460;7.158;2022-11-02T10:56:09;17.50;52.00
13569;DHT22;6856;51.460;7.158;2022-11-02T10:58:53;17.60;51.90
13569;DHT22;6856;51.460;7.158;2022-11-02T11:01:31;17.60;51.50
13569;DHT22;6856;51.460;7.158;2022-11-02T11:04:19;17.70;51.40
13569;DHT22;6856;51.460;7.158;2022-11-02T11:06:55;17.70;51.30
13569;DHT22;6856;51.460;7.158;2022-11-02T11:09:35;17.80;51.20
13569;DHT22;6856;51.460;7.158;2022-11-02T11:12:20;17.80;50.70
13569;DHT22;6856;51.460;7.158;2022-11-02T11:15:00;17.80;50.50
13569;DHT22;6856;51.460;7.158;2022-11-02T11:17:55;17.80;50.30
13569;DHT22;6856;51.460;7.158;2022-11-02T11:20:53;17.80;49.90
13569;DHT22;6856;51.460;7.158;2022-11-02T11:23:28;17.80;49.90
13569;DHT22;6856;51.460;7.158;2022-11-02T11:26:02;17.80;49.70
13569;DHT22;6856;51.460;7.158;2022-11-02T11:28:51;17.80;50.00
13569;DHT22;6856;51.460;7.158;2022-11-02T11:31:25;17.80;50.00
13569;DHT22;6856;51.460;7.158;2022-11-02T11:33:59;17.80;49.60
13569;DHT22;6856;51.460;7.158;2022-11-02T11:36:34;17.80;49.80
13569;DHT22;6856;51.460;7.158;2022-11-02T11:39:26;17.80;49.90
13569;DHT22;6856;51.460;7.158;2022-11-02T11:42:04;17.80;49.00
13569;DHT22;6856;51.460;7.158;2022-11-02T11:44:55;17.90;49.50
13569;DHT22;6856;51.460;7.158;2022-11-02T11:47:35;17.90;49.30
13569;DHT22;6856;51.460;7.158;2022-11-02T11:50:14;18.00;49.50
13569;DHT22;6856;51.460;7.158;2022-11-02T11:53:13;18.00;49.30
13569;DHT22;6856;51.460;7.158;2022-11-02T11:55:56;18.10;49.10
13569;DHT22;6856;51.460;7.158;2022-11-02T11:58:32;18.10;49.10
13569;DHT22;6856;51.460;7.158;2022-11-02T12:01:15;18.10;48.90
13569;DHT22;6856;51.460;7.158;2022-11-02T12:03:52;18.10;48.70
13569;DHT22;6856;51.460;7.158;2022-11-02T12:06:31;18.20;48.90
13569;DHT22;6856;51.460;7.158;2022-11-02T12:09:16;18.20;48.90
13569;DHT22;6856;51.460;7.158;2022-11-02T12:12:01;18.20;48.80
13569;DHT22;6856;51.460;7.158;2022-11-02T12:14:48;18.30;48.70
13569;DHT22;6856;51.460;7.158;2022-11-02T12:17:38;18.30;48.60
13569;DHT22;6856;51.460;7.158;2022-11-02T12:20:38;18.40;48.50
13569;DHT22;6856;51.460;7.158;2022-11-02T12:23:43;18.40;48.30
13569;DHT22;6856;51.460;7.158;2022-11-02T12:26:34;18.40;48.20
13569;DHT22;6856;51.460;7.158;2022-11-02T12:29:30;18.40;48.10
13569;DHT22;6856;51.460;7.158;2022-11-02T12:35:37;18.40;47.70
13569;DHT22;6856;51.460;7.158;2022-11-02T12:38:42;18.40;48.50
13569;DHT22;6856;51.460;7.158;2022-11-02T12:41:46;18.40;47.90
13569;DHT22;6856;51.460;7.158;2022-11-02T12:44:47;18.50;47.70
13569;DHT22;6856;51.460;7.158;2022-11-02T12:47:54;18.50;47.80
13569;DHT22;6856;51.460;7.158;2022-11-02T12:50:49;18.50;47.80
13569;DHT22;6856;51.460;7.158;2022-11-02T12:53:39;18.50;47.70
13569;DHT22;6856;51.460;7.158;2022-11-02T12:56:21;18.40;47.60
13569;DHT22;6856;51.460;7.158;2022-11-02T12:58:58;18.40;47.50
13569;DHT22;6856;51.460;7.158;2022-11-02T13:01:46;18.30;48.10
13569;DHT22;6856;51.460;7.158;2022-11-02T13:04:30;18.30;47.60
13569;DHT22;6856;51.460;7.158;2022-11-02T13:07:13;18.20;47.80
13569;DHT22;6856;51.460;7.158;2022-11-02T13:09:54;18.20;47.80
13569;DHT22;6856;51.460;7.158;2022-11-02T13:12:35;18.20;48.00
13569;DHT22;6856;51.460;7.158;2022-11-02T13:15:11;18.20;48.20
13569;DHT22;6856;51.460;7.158;2022-11-02T13:17:51;18.20;48.30
13569;DHT22;6856;51.460;7.158;2022-11-02T13:20:29;18.20;48.40
13569;DHT22;6856;51.460;7.158;2022-11-02T13:23:16;18.20;48.40
13569;DHT22;6856;51.460;7.158;2022-11-02T13:25:57;18.20;48.10
13569;DHT22;6856;51.460;7.158;2022-11-02T13:28:38;18.20;48.00
13569;DHT22;6856;51.460;7.158;2022-11-02T13:31:23;18.20;48.00
13569;DHT22;6856;51.460;7.158;2022-11-02T13:34:02;18.20;47.50
13569;DHT22;6856;51.460;7.158;2022-11-02T13:36:41;18.20;48.30
13569;DHT22;6856;51.460;7.158;2022-11-02T13:39:20;18.20;48.00
13569;DHT22;6856;51.460;7.158;2022-11-02T13:42:12;18.20;47.80
13569;DHT22;6856;51.460;7.158;2022-11-02T13:48:52;18.20;48.10
13569;DHT22;6856;51.460;7.158;2022-11-02T13:51:35;18.20;47.90
13569;DHT22;6856;51.460;7.158;2022-11-02T13:54:16;18.20;48.00
13569;DHT22;6856;51.460;7.158;2022-11-02T13:56:55;18.20;48.00
13569;DHT22;6856;51.460;7.158;2022-11-02T13:59:34;18.20;48.00
13569;DHT22;6856;51.460;7.158;2022-11-02T14:02:21;18.20;48.10
13569;DHT22;6856;51.460;7.158;2022-11-02T14:04:59;18.10;48.20
13569;DHT22;6856;51.460;7.158;2022-11-02T14:07:38;18.10;48.40
13569;DHT22;6856;51.460;7.158;2022-11-02T14:10:18;18.10;48.50
13569;DHT22;6856;51.460;7.158;2022-11-02T14:12:52;18.10;48.50
13569;DHT22;6856;51.460;7.158;2022-11-02T14:15:37;18.10;48.50
13569;DHT22;6856;51.460;7.158;2022-11-02T14:18:28;18.00;48.60
13569;DHT22;6856;51.460;7.158;2022-11-02T14:24:50;18.00;48.80
13569;DHT22;6856;51.460;7.158;2022-11-02T14:27:38;18.00;48.80
13569;DHT22;6856;51.460;7.158;2022-11-02T14:30:41;18.00;48.80
13569;DHT22;6856;51.460;7.158;2022-11-02T14:33:43;17.90;48.90
13569;DHT22;6856;51.460;7.158;2022-11-02T14:36:41;17.90;49.40
13569;DHT22;6856;51.460;7.158;2022-11-02T14:39:34;17.80;49.00
13569;DHT22;6856;51.460;7.158;2022-11-02T14:42:33;17.80;49.10
13569;DHT22;6856;51.460;7.158;2022-11-02T14:45:42;18.00;49.60
13569;DHT22;6856;51.460;7.158;2022-11-02T14:48:30;17.80;49.20
13569;DHT22;6856;51.460;7.158;2022-11-02T14:51:10;17.80;49.20
13569;DHT22;6856;51.460;7.158;2022-11-02T14:53:54;17.80;49.20
13569;DHT22;6856;51.460;7.158;2022-11-02T14:56:48;17.80;49.30
13569;DHT22;6856;51.460;7.158;2022-11-02T14:59:28;17.70;49.30
13569;DHT22;6856;51.460;7.158;2022-11-02T15:02:10;17.70;49.20
13569;DHT22;6856;51.460;7.158;2022-11-02T15:05:00;17.70;48.80
13569;DHT22;6856;51.460;7.158;2022-11-02T15:07:37;17.70;49.20
13569;DHT22;6856;51.460;7.158;2022-11-02T15:10:34;17.70;49.30
13569;DHT22;6856;51.460;7.158;2022-11-02T15:13:44;17.70;49.50
13569;DHT22;6856;51.460;7.158;2022-11-02T15:16:38;17.60;49.40
13569;DHT22;6856;51.460;7.158;2022-11-02T15:19:38;17.60;49.30
13569;DHT22;6856;51.460;7.158;2022-11-02T15:22:35;17.60;49.70
13569;DHT22;6856;51.460;7.158;2022-11-02T15:25:14;17.60;49.70
13569;DHT22;6856;51.460;7.158;2022-11-02T15:27:56;17.60;49.60
13569;DHT22;6856;51.460;7.158;2022-11-02T15:30:41;17.50;49.70
13569;DHT22;6856;51.460;7.158;2022-11-02T15:33:32;17.50;49.70
13569;DHT22;6856;51.460;7.158;2022-11-02T15:36:14;17.50;49.80
13569;DHT22;6856;51.460;7.158;2022-11-02T15:38:52;17.50;49.90
13569;DHT22;6856;51.460;7.158;2022-11-02T15:41:33;17.50;49.80
13569;DHT22;6856;51.460;7.158;2022-11-02T15:48:03;17.40;50.00
13569;DHT22;6856;51.460;7.158;2022-11-02T15:50:52;17.40;50.00
13569;DHT22;6856;51.460;7.158;2022-11-02T15:53:44;17.40;50.00
13569;DHT22;6856;51.460;7.158;2022-11-02T15:56:53;17.30;50.00
13569;DHT22;6856;51.460;7.158;2022-11-02T16:02:48;17.20;50.10
13569;DHT22;6856;51.460;7.158;2022-11-02T16:05:24;17.10;50.00
13569;DHT22;6856;51.460;7.158;2022-11-02T16:08:01;17.10;50.10
13569;DHT22;6856;51.460;7.158;2022-11-02T16:10:42;17.00;49.60
13569;DHT22;6856;51.460;7.158;2022-11-02T16:13:21;17.00;50.00
13569;DHT22;6856;51.460;7.158;2022-11-02T16:16:03;17.00;49.90
13569;DHT22;6856;51.460;7.158;2022-11-02T16:18:39;16.90;50.00
13569;DHT22;6856;51.460;7.158;2022-11-02T16:21:15;16.90;50.10
13569;DHT22;6856;51.460;7.158;2022-11-02T16:23:54;16.80;50.10
13569;DHT22;6856;51.460;7.158;2022-11-02T16:26:30;16.80;50.10
13569;DHT22;6856;51.460;7.158;2022-11-02T16:29:05;16.80;50.00
13569;DHT22;6856;51.460;7.158;2022-11-02T16:31:42;16.70;50.00
13569;DHT22;6856;51.460;7.158;2022-11-02T16:34:19;16.70;50.20
13569;DHT22;6856;51.460;7.158;2022-11-02T16:36:54;16.60;50.20
13569;DHT22;6856;51.460;7.158;2022-11-02T16:39:31;16.60;50.20
13569;DHT22;6856;51.460;7.158;2022-11-02T16:42:14;16.60;50.30
13569;DHT22;6856;51.460;7.158;2022-11-02T16:44:56;16.50;50.30
13569;DHT22;6856;51.460;7.158;2022-11-02T16:47:36;16.50;50.40
13569;DHT22;6856;51.460;7.158;2022-11-02T16:50:17;16.40;50.40
13569;DHT22;6856;51.460;7.158;2022-11-02T16:52:54;16.30;50.50
13569;DHT22;6856;51.460;7.158;2022-11-02T16:55:41;16.30;51.10
13569;DHT22;6856;51.460;7.158;2022-11-02T16:58:20;16.30;50.60
13569;DHT22;6856;51.460;7.158;2022-11-02T17:00:58;16.20;50.60
13569;DHT22;6856;51.460;7.158;2022-11-02T17:03:36;16.20;50.70
13569;DHT22;6856;51.460;7.158;2022-11-02T17:06:09;16.10;50.60
13569;DHT22;6856;51.460;7.158;2022-11-02T17:08:43;16.00;50.70
13569;DHT22;6856;51.460;7.158;2022-11-02T17:11:23;16.00;50.80
13569;DHT22;6856;51.460;7.158;2022-11-02T17:13:58;16.00;50.90
13569;DHT22;6856;51.460;7.158;2022-11-02T17:16:32;15.90;50.80
13569;DHT22;6856;51.460;7.158;2022-11-02T17:22:26;15.80;51.30
13569;DHT22;6856;51.460;7.158;2022-11-02T17:25:09;15.80;51.10
13569;DHT22;6856;51.460;7.158;2022-11-02T17:27:46;15.70;51.20